createdAt,value
2019-05-16T00:00:40.638Z,30.80
2019-05-16T00:02:48.100Z,29.25
2019-05-16T00:04:53.660Z,32.60
2019-05-16T00:06:59.161Z,36.17
2019-05-16T00:09:08.011Z,38.95
2019-05-16T00:11:13.629Z,36.50
2019-05-16T00:13:19.145Z,34.50
2019-05-16T00:15:24.751Z,31.57
2019-05-16T00:17:30.261Z,37.08
2019-05-16T00:19:38.022Z,37.90
2019-05-16T00:21:43.072Z,40.48
2019-05-16T00:23:48.821Z,44.20
2019-05-16T00:25:55.231Z,42.65
2019-05-16T00:28:00.850Z,42.58
2019-05-16T00:30:08.861Z,41.75
2019-05-16T00:32:14.472Z,45.15
2019-05-16T00:34:20.056Z,41.30
2019-05-16T00:36:27.683Z,45.65
2019-05-16T00:38:32.768Z,52.38
2019-05-16T00:40:38.458Z,48.85
2019-05-16T00:42:43.973Z,52.13
2019-05-16T00:44:49.480Z,49.30
2019-05-16T00:46:55.002Z,51.30
2019-05-16T00:49:00.520Z,43.10
2019-05-16T00:51:07.804Z,48.73
2019-05-16T00:53:13.304Z,49.10
2019-05-16T00:55:18.898Z,55.10
2019-05-16T00:57:24.649Z,45.75
2019-05-16T00:59:31.573Z,53.65
2019-05-16T01:01:38.972Z,54.50
2019-05-16T01:03:45.640Z,46.70
2019-05-16T01:05:51.144Z,45.92
2019-05-16T01:07:58.465Z,50.25
2019-05-16T01:10:05.513Z,47.15
2019-05-16T01:12:11.093Z,46.60
2019-05-16T01:14:17.730Z,55.17
2019-05-16T01:16:23.381Z,49.13
2019-05-16T01:18:28.991Z,54.00
2019-05-16T01:20:34.977Z,51.23
2019-05-16T01:22:40.562Z,56.85
2019-05-16T01:24:46.150Z,59.95
2019-05-16T01:26:51.665Z,51.98
2019-05-16T01:28:57.704Z,45.88
2019-05-16T01:31:03.341Z,44.38
2019-05-16T01:33:09.057Z,50.65
2019-05-16T01:35:14.704Z,46.18
2019-05-16T01:37:20.288Z,41.33
2019-05-16T01:39:25.816Z,43.23
2019-05-16T01:41:31.320Z,49.65
2019-05-16T01:43:37.901Z,48.58
2019-05-16T01:45:43.441Z,47.10
2019-05-16T01:47:48.962Z,48.08
2019-05-16T01:49:54.487Z,63.92
2019-05-16T01:52:00.014Z,47.45
2019-05-16T01:54:05.694Z,47.15
2019-05-16T01:56:11.282Z,42.98
2019-05-16T01:58:19.908Z,61.05
2019-05-16T02:00:25.885Z,44.73
2019-05-16T02:02:31.184Z,54.60
2019-05-16T02:04:38.018Z,48.60
2019-05-16T02:06:51.674Z,46.02
2019-05-16T02:08:50.959Z,47.67
2019-05-16T02:10:58.388Z,57.58
2019-05-16T02:13:03.707Z,59.80
2019-05-16T02:15:09.465Z,55.63
2019-05-16T02:17:14.987Z,58.95
2019-05-16T02:19:20.589Z,50.28
2019-05-16T02:21:26.115Z,57.03
2019-05-16T02:23:31.662Z,58.65
2019-05-16T02:25:38.186Z,64.32
2019-05-16T02:27:44.322Z,50.83
2019-05-16T02:29:50.678Z,62.25
2019-05-16T02:31:56.438Z,67.25
2019-05-16T02:34:04.875Z,57.58
2019-05-16T02:36:10.937Z,59.15
2019-05-16T02:38:16.312Z,64.65
2019-05-16T02:40:23.690Z,86.05
2019-05-16T02:42:30.947Z,73.47
2019-05-16T02:44:36.452Z,66.40
2019-05-16T02:46:42.183Z,69.05
2019-05-16T02:48:51.552Z,88.82
2019-05-16T02:50:55.998Z,67.17
2019-05-16T02:53:01.821Z,150.42
2019-05-16T02:55:11.285Z,94.80
2019-05-16T02:57:14.913Z,78.17
2019-05-16T02:59:20.832Z,132.37
2019-05-16T03:01:26.511Z,73.72
2019-05-16T03:03:32.610Z,88.42
2019-05-16T03:05:41.603Z,99.13
2019-05-16T03:07:47.565Z,99.20
2019-05-16T03:09:55.006Z,100.22
2019-05-16T03:12:02.231Z,85.67
2019-05-16T03:14:07.819Z,142.07
2019-05-16T03:16:15.598Z,107.67
2019-05-16T03:18:24.140Z,87.20
2019-05-16T03:20:31.516Z,77.05
2019-05-16T03:22:40.606Z,137.18
2019-05-16T03:24:45.281Z,82.57
2019-05-16T03:26:51.469Z,97.75
2019-05-16T03:28:57.103Z,82.22
2019-05-16T03:31:05.122Z,161.75
2019-05-16T03:33:19.508Z,131.67
2019-05-16T03:35:17.478Z,90.53
2019-05-16T03:37:25.210Z,156.85
2019-05-16T03:39:31.468Z,95.77
2019-05-16T03:41:37.144Z,95.77
2019-05-16T03:43:42.657Z,90.15
2019-05-16T03:45:51.841Z,98.47
2019-05-16T03:47:55.397Z,114.10
2019-05-16T03:50:00.998Z,158.40
2019-05-16T03:52:06.577Z,120.97
2019-05-16T03:54:12.651Z,105.60
2019-05-16T03:56:21.475Z,181.35
2019-05-16T03:58:25.486Z,113.83
2019-05-16T04:00:54.850Z,113.83
2019-05-16T04:03:01.212Z,172.75
2019-05-16T04:05:07.200Z,115.47
2019-05-16T04:07:12.729Z,101.70
2019-05-16T04:09:20.862Z,143.15
2019-05-16T04:11:25.402Z,127.62
2019-05-16T04:13:31.827Z,143.90
2019-05-16T04:15:40.600Z,192.43
2019-05-16T04:17:44.558Z,116.82
2019-05-16T04:19:50.886Z,190.22
2019-05-16T04:21:56.618Z,75.25
2019-05-16T04:24:02.131Z,124.78
2019-05-16T04:26:07.672Z,115.32
2019-05-16T04:28:14.822Z,101.33
2019-05-16T04:30:21.978Z,142.87
2019-05-16T04:32:27.754Z,186.03
2019-05-16T04:34:33.302Z,85.87
2019-05-16T04:36:40.679Z,93.00
2019-05-16T04:38:46.871Z,135.12
2019-05-16T04:40:52.506Z,200.40
2019-05-16T04:43:01.024Z,160.05
2019-05-16T04:45:11.924Z,127.78
2019-05-16T04:47:21.017Z,106.90
2019-05-16T04:49:26.928Z,74.03
2019-05-16T04:51:32.482Z,145.55
2019-05-16T04:53:38.024Z,120.53
2019-05-16T04:55:43.559Z,113.85
2019-05-16T04:57:51.070Z,106.90
2019-05-16T04:59:56.265Z,136.43
2019-05-16T05:02:02.382Z,159.18
2019-05-16T05:04:14.284Z,120.47
2019-05-16T05:06:15.257Z,97.90
2019-05-16T05:08:21.938Z,93.62
2019-05-16T05:10:31.024Z,121.55
2019-05-16T05:12:35.388Z,89.60
2019-05-16T05:14:41.627Z,160.37
2019-05-16T05:16:47.352Z,153.35
2019-05-16T05:18:52.858Z,113.35
2019-05-16T05:21:00.924Z,108.92
2019-05-16T05:23:05.525Z,168.28
2019-05-16T05:25:11.289Z,161.18
2019-05-16T05:27:16.819Z,158.97
2019-05-16T05:29:22.408Z,116.08
2019-05-16T05:31:34.481Z,129.00
2019-05-16T05:33:35.246Z,122.50
2019-05-16T05:35:40.891Z,122.17
2019-05-16T05:37:46.381Z,134.97
2019-05-16T05:39:51.909Z,112.35
2019-05-16T05:41:59.911Z,118.20
2019-05-16T05:44:04.722Z,97.55
2019-05-16T05:46:11.224Z,103.47
2019-05-16T05:48:17.024Z,118.33
2019-05-16T05:50:22.748Z,88.40
2019-05-16T05:52:30.343Z,86.92
2019-05-16T05:54:35.496Z,101.38
2019-05-16T05:56:41.114Z,164.35
2019-05-16T05:58:46.623Z,109.87
2019-05-16T06:00:52.597Z,104.80
2019-05-16T06:03:00.069Z,119.20
2019-05-16T06:05:06.818Z,135.48
2019-05-16T06:07:12.383Z,113.20
2019-05-16T06:09:26.122Z,126.02
2019-05-16T06:11:25.033Z,131.32
2019-05-16T06:13:31.162Z,130.75
2019-05-16T06:15:36.779Z,167.25
2019-05-16T06:17:42.363Z,137.00
2019-05-16T06:19:49.783Z,114.72
2019-05-16T06:21:55.103Z,124.60
2019-05-16T06:24:00.630Z,119.00
2019-05-16T06:26:06.400Z,129.20
2019-05-16T06:28:11.897Z,115.55
2019-05-16T06:30:17.569Z,140.55
2019-05-16T06:32:23.175Z,133.32
2019-05-16T06:34:30.151Z,137.03
2019-05-16T06:36:35.803Z,110.65
2019-05-16T06:38:41.393Z,127.58
2019-05-16T06:40:49.835Z,120.57
2019-05-16T06:42:54.120Z,142.45
2019-05-16T06:45:00.859Z,161.50
2019-05-16T06:47:16.886Z,156.93
2019-05-16T06:49:13.829Z,120.42
2019-05-16T06:51:20.040Z,153.53
2019-05-16T06:53:25.751Z,136.12
2019-05-16T06:55:31.284Z,141.43
2019-05-16T06:57:36.891Z,113.12
2019-05-16T06:59:42.493Z,115.70
2019-05-16T07:01:50.036Z,126.25
2019-05-16T07:03:55.308Z,149.00
2019-05-16T07:06:01.133Z,159.12
2019-05-16T07:08:06.863Z,209.35
2019-05-16T07:10:13.124Z,243.82
2019-05-16T07:12:20.245Z,159.95
2019-05-16T07:14:28.272Z,109.65
2019-05-16T07:16:33.436Z,112.80
2019-05-16T07:18:40.231Z,102.78
2019-05-16T07:20:46.044Z,92.72
2019-05-16T07:22:51.615Z,86.37
2019-05-16T07:24:57.225Z,77.40
2019-05-16T07:27:02.749Z,84.28
2019-05-16T07:29:10.785Z,85.17
2019-05-16T07:31:18.731Z,84.60
2019-05-16T07:33:22.826Z,82.00
2019-05-16T07:35:30.666Z,73.67
2019-05-16T07:37:35.743Z,75.52
2019-05-16T07:39:41.997Z,68.78
2019-05-16T07:41:47.542Z,68.12
2019-05-16T07:43:53.074Z,66.87
2019-05-16T07:46:00.422Z,65.03
2019-05-16T07:48:05.822Z,67.80
2019-05-16T07:50:11.770Z,59.70
2019-05-16T07:52:20.630Z,53.02
2019-05-16T07:54:24.441Z,63.75
2019-05-16T07:56:31.337Z,59.77
2019-05-16T07:58:36.841Z,63.90
2019-05-16T08:00:52.415Z,63.68
2019-05-16T08:02:50.620Z,60.70
2019-05-16T08:04:57.376Z,60.35
2019-05-16T08:07:05.644Z,45.80
2019-05-16T08:09:12.738Z,51.70
2019-05-16T08:11:17.565Z,63.68
2019-05-16T08:13:23.100Z,54.35
2019-05-16T08:15:30.380Z,42.00
2019-05-16T08:17:36.030Z,48.92
2019-05-16T08:19:41.552Z,46.60
2019-05-16T08:21:47.076Z,47.30
2019-05-16T08:23:52.601Z,50.63
2019-05-16T08:26:00.914Z,56.60
2019-05-16T08:28:05.463Z,56.98
2019-05-16T08:30:11.380Z,65.80
2019-05-16T08:32:16.913Z,49.85
2019-05-16T08:34:22.524Z,58.65
2019-05-16T08:36:30.725Z,57.62
2019-05-16T08:38:35.320Z,57.98
2019-05-16T08:41:01.074Z,58.80
2019-05-16T08:42:51.601Z,58.05
2019-05-16T08:44:55.124Z,60.50
2019-05-16T08:47:06.118Z,55.48
2019-05-16T08:49:07.785Z,104.75
2019-05-16T08:51:13.312Z,78.33
2019-05-16T08:53:21.497Z,119.55
2019-05-16T08:55:26.116Z,96.02
2019-05-16T08:57:33.908Z,108.30
2019-05-16T08:59:40.964Z,101.10
2019-05-16T09:01:53.419Z,66.50
2019-05-16T09:03:54.137Z,78.22
2019-05-16T09:06:03.006Z,54.98
2019-05-16T09:08:06.806Z,67.20
2019-05-16T09:10:50.326Z,61.53
2019-05-16T09:12:19.736Z,59.73
2019-05-16T09:14:27.656Z,59.13
2019-05-16T09:16:32.813Z,61.02
2019-05-16T09:18:41.278Z,55.10
2019-05-16T09:20:45.580Z,58.83
2019-05-16T09:22:51.243Z,56.98
2019-05-16T09:24:57.632Z,63.83
2019-05-16T09:27:04.050Z,64.87
2019-05-16T09:29:11.127Z,61.83
2019-05-16T09:31:17.825Z,60.15
2019-05-16T09:33:23.656Z,57.38
2019-05-16T09:35:29.256Z,62.78
2019-05-16T09:37:37.370Z,59.03
2019-05-16T09:39:42.005Z,54.20
2019-05-16T09:41:54.466Z,59.00
2019-05-16T09:43:54.758Z,52.23
2019-05-16T09:46:03.999Z,57.08
2019-05-16T09:48:08.247Z,60.43
2019-05-16T09:50:14.647Z,62.33
2019-05-16T09:52:22.866Z,55.67
2019-05-16T09:54:28.404Z,62.50
2019-05-16T09:56:33.985Z,55.12
2019-05-16T09:58:39.501Z,55.52
2019-05-16T10:00:47.274Z,56.73
2019-05-16T10:02:52.296Z,65.60
2019-05-16T10:04:58.217Z,55.83
2019-05-16T10:07:06.504Z,56.42
2019-05-16T10:09:10.984Z,54.18
2019-05-16T10:11:18.165Z,59.98
2019-05-16T10:13:23.906Z,70.60
2019-05-16T10:15:29.497Z,64.53
2019-05-16T10:17:36.960Z,62.88
2019-05-16T10:19:42.212Z,59.63
2019-05-16T10:21:47.729Z,62.53
2019-05-16T10:23:53.316Z,64.20
2019-05-16T10:25:58.911Z,55.98
2019-05-16T10:28:05.623Z,62.50
2019-05-16T10:30:12.880Z,60.35
2019-05-16T10:32:18.458Z,50.48
2019-05-16T10:34:23.977Z,52.98
2019-05-16T10:36:29.569Z,47.13
2019-05-16T10:38:37.465Z,49.60
2019-05-16T10:40:42.241Z,56.83
2019-05-16T10:42:47.972Z,53.20
2019-05-16T10:44:53.558Z,52.00
2019-05-16T10:46:59.097Z,69.10
2019-05-16T10:49:04.664Z,54.05
2019-05-16T10:51:10.308Z,63.68
2019-05-16T10:53:33.618Z,172.87
2019-05-16T10:55:23.228Z,90.57
2019-05-16T10:57:29.948Z,139.55
2019-05-16T10:59:57.801Z,246.82
2019-05-16T11:01:42.971Z,68.33
2019-05-16T11:03:49.250Z,55.33
2019-05-16T11:06:02.876Z,192.47
2019-05-16T11:08:02.233Z,68.02
2019-05-16T11:10:08.056Z,54.83
2019-05-16T11:12:13.700Z,169.87
2019-05-16T11:14:19.250Z,84.35
2019-05-16T11:16:27.226Z,155.80
2019-05-16T11:18:31.905Z,59.83
2019-05-16T11:20:37.786Z,153.42
2019-05-16T11:22:43.290Z,138.70
2019-05-16T11:24:48.888Z,134.40
2019-05-16T11:26:56.670Z,64.95
2019-05-16T11:29:01.708Z,81.35
2019-05-16T11:31:07.794Z,57.33
2019-05-16T11:33:13.491Z,55.90
2019-05-16T11:35:21.516Z,61.15
2019-05-16T11:37:27.915Z,56.88
2019-05-16T11:39:33.646Z,57.45
2019-05-16T11:41:39.160Z,55.75
2019-05-16T11:43:44.678Z,260.20
2019-05-16T11:45:50.301Z,73.15
2019-05-16T11:47:56.815Z,91.65
2019-05-16T11:50:07.212Z,65.65
2019-05-16T11:52:13.812Z,139.57
2019-05-16T11:54:19.426Z,154.35
2019-05-16T11:56:24.951Z,60.17
2019-05-16T11:58:30.475Z,58.23
2019-05-16T12:00:37.252Z,57.43
2019-05-16T12:02:43.143Z,51.28
2019-05-16T12:04:49.572Z,57.98
2019-05-16T12:06:57.300Z,57.98
2019-05-16T12:09:02.317Z,54.58
2019-05-16T12:11:09.032Z,53.85
2019-05-16T12:13:25.345Z,80.00
2019-05-16T12:15:22.477Z,101.02
2019-05-16T12:17:28.166Z,67.60
2019-05-16T12:19:37.710Z,52.10
2019-05-16T12:21:41.808Z,56.13
2019-05-16T12:23:47.442Z,54.10
2019-05-16T12:25:53.041Z,52.58
2019-05-16T12:27:58.692Z,73.97
2019-05-16T12:30:12.974Z,93.67
2019-05-16T12:32:14.218Z,46.30
2019-05-16T12:34:19.737Z,51.80
2019-05-16T12:36:26.768Z,44.93
2019-05-16T12:38:32.417Z,51.05
2019-05-16T12:40:37.946Z,67.67
2019-05-16T12:42:54.453Z,49.05
2019-05-16T12:45:00.337Z,43.80
2019-05-16T12:47:07.617Z,42.90
2019-05-16T12:49:13.083Z,43.92
2019-05-16T12:51:18.588Z,42.30
2019-05-16T12:53:32.291Z,43.33
2019-05-16T12:55:39.793Z,40.83
2019-05-16T12:57:48.496Z,41.18
2019-05-16T12:59:52.767Z,40.67
2019-05-16T13:01:58.341Z,39.73
2019-05-16T13:04:18.980Z,39.60
2019-05-16T13:06:23.874Z,35.35
2019-05-16T13:08:29.489Z,40.05
2019-05-16T13:10:37.734Z,41.92
2019-05-16T13:12:42.382Z,42.90
2019-05-16T13:14:47.955Z,42.23
2019-05-16T13:16:53.522Z,42.62
2019-05-16T13:18:59.035Z,48.00
2019-05-16T13:21:06.663Z,46.33
2019-05-16T13:23:14.290Z,44.67
2019-05-16T13:25:19.237Z,52.53
2019-05-16T13:27:24.859Z,66.05
2019-05-16T13:29:30.444Z,48.85
2019-05-16T13:31:37.817Z,49.20
2019-05-16T13:33:43.383Z,73.80
2019-05-16T13:35:48.897Z,49.05
2019-05-16T13:37:54.495Z,58.33
2019-05-16T13:40:00.054Z,45.60
2019-05-16T13:42:07.980Z,48.90
2019-05-16T13:44:18.868Z,40.33
2019-05-16T13:46:20.089Z,47.13
2019-05-16T13:48:26.760Z,42.10
2019-05-16T13:50:32.385Z,42.05
2019-05-16T13:52:38.003Z,48.00
2019-05-16T13:54:43.664Z,38.85
2019-05-16T13:56:49.257Z,42.38
2019-05-16T13:58:57.024Z,40.85
2019-05-16T14:01:02.123Z,39.50
2019-05-16T14:03:07.979Z,44.20
2019-05-16T14:05:14.137Z,41.90
2019-05-16T14:07:19.719Z,46.42
2019-05-16T14:09:26.862Z,38.92
2019-05-16T14:11:32.553Z,38.55
2019-05-16T14:13:38.216Z,35.68
2019-05-16T14:15:43.793Z,39.23
2019-05-16T14:17:49.375Z,36.68
2019-05-16T14:19:57.152Z,41.80
2019-05-16T14:22:02.042Z,39.80
2019-05-16T14:24:08.696Z,40.80
2019-05-16T14:26:14.313Z,44.65
2019-05-16T14:28:19.835Z,40.75
2019-05-16T14:30:28.302Z,42.93
2019-05-16T14:32:32.647Z,46.42
2019-05-16T14:34:38.722Z,50.10
2019-05-16T14:36:47.129Z,51.88
2019-05-16T14:38:51.607Z,59.00
2019-05-16T14:40:57.513Z,63.90
2019-05-16T14:43:03.111Z,60.40
2019-05-16T14:45:21.491Z,60.20
2019-05-16T14:47:27.350Z,61.80
2019-05-16T14:49:32.882Z,73.33
2019-05-16T14:51:38.845Z,54.25
2019-05-16T14:53:46.892Z,56.13
2019-05-16T14:55:51.627Z,55.67
2019-05-16T14:57:57.153Z,59.88
2019-05-16T15:00:02.745Z,51.50
2019-05-16T15:02:08.761Z,58.23
2019-05-16T15:04:14.281Z,126.87
2019-05-16T15:06:19.789Z,76.67
2019-05-16T15:08:25.324Z,69.92
2019-05-16T15:10:30.908Z,61.28
2019-05-16T15:12:37.630Z,56.90
2019-05-16T15:14:43.377Z,67.95
2019-05-16T15:16:51.847Z,71.17
2019-05-16T15:18:57.528Z,74.77
2019-05-16T15:21:03.249Z,80.35
2019-05-16T15:23:08.753Z,106.58
2019-05-16T15:25:14.419Z,73.30
2019-05-16T15:27:21.548Z,69.97
2019-05-16T15:29:27.100Z,99.72
2019-05-16T15:31:32.743Z,150.93
2019-05-16T15:33:38.426Z,145.25
2019-05-16T15:35:43.952Z,145.95
2019-05-16T15:37:49.468Z,140.43
2019-05-16T15:39:55.020Z,128.30
2019-05-16T15:42:00.532Z,141.77
2019-05-16T15:44:07.858Z,90.10
2019-05-16T15:46:13.548Z,115.37
2019-05-16T15:48:19.181Z,136.57
2019-05-16T15:50:27.928Z,323.87
2019-05-16T15:52:32.778Z,400.53
2019-05-16T15:54:40.338Z,358.68
2019-05-16T15:56:48.358Z,195.43
2019-05-16T15:58:53.953Z,118.17
2019-05-16T16:00:59.482Z,171.00
2019-05-16T16:03:07.025Z,96.85
2019-05-16T16:05:12.281Z,113.35
2019-05-16T16:07:18.253Z,96.00
2019-05-16T16:09:24.039Z,188.52
2019-05-16T16:11:31.352Z,166.55
2019-05-16T16:13:37.338Z,114.62
2019-05-16T16:15:53.217Z,101.30
2019-05-16T16:17:50.608Z,83.42
2019-05-16T16:19:57.912Z,77.72
2019-05-16T16:22:03.403Z,82.82
2019-05-16T16:24:09.418Z,73.95
2019-05-16T16:26:17.490Z,83.78
2019-05-16T16:28:22.340Z,82.55
2019-05-16T16:30:28.000Z,78.33
2019-05-16T16:32:33.603Z,85.53
2019-05-16T16:34:39.118Z,73.20
2019-05-16T16:36:46.974Z,74.58
2019-05-16T16:38:51.801Z,75.10
2019-05-16T16:40:57.567Z,64.25
2019-05-16T16:43:03.100Z,63.45
2019-05-16T16:45:10.176Z,71.72
2019-05-16T16:47:17.636Z,81.17
2019-05-16T16:49:22.917Z,70.25
2019-05-16T16:51:28.569Z,68.25
2019-05-16T16:53:34.084Z,62.38
2019-05-16T16:55:39.681Z,64.72
2019-05-16T16:57:47.215Z,71.05
2019-05-16T16:59:52.326Z,67.45
2019-05-16T17:01:57.876Z,81.40
2019-05-16T17:04:03.600Z,85.62
2019-05-16T17:06:09.145Z,84.40
2019-05-16T17:08:16.817Z,74.50
2019-05-16T17:10:21.905Z,70.03
2019-05-16T17:12:27.454Z,71.70
2019-05-16T17:14:32.960Z,69.82
2019-05-16T17:16:38.537Z,66.42
2019-05-16T17:18:44.057Z,69.35
2019-05-16T17:20:49.724Z,75.85
2019-05-16T17:22:57.163Z,71.30
2019-05-16T17:25:02.712Z,69.20
2019-05-16T17:27:09.365Z,74.60
2019-05-16T17:29:17.013Z,80.67
2019-05-16T17:31:22.338Z,75.32
2019-05-16T17:33:28.613Z,79.55
2019-05-16T17:35:38.569Z,75.78
2019-05-16T17:37:42.917Z,78.90
2019-05-16T17:39:48.444Z,83.35
2019-05-16T17:41:54.939Z,79.92
2019-05-16T17:44:01.219Z,81.90
2019-05-16T17:46:07.317Z,77.30
2019-05-16T17:48:13.897Z,73.92
2019-05-16T17:50:20.236Z,70.60
2019-05-16T17:52:27.332Z,66.17
2019-05-16T17:54:32.997Z,62.88
2019-05-16T17:56:38.532Z,68.25
2019-05-16T17:58:44.156Z,72.25
2019-05-16T18:00:49.880Z,78.00
2019-05-16T18:02:57.000Z,75.72
2019-05-16T18:05:07.420Z,67.32
2019-05-16T18:07:13.229Z,56.68
2019-05-16T18:09:18.825Z,78.57
2019-05-16T18:11:27.624Z,112.68
2019-05-16T18:13:33.128Z,138.97
2019-05-16T18:15:38.669Z,101.20
2019-05-16T18:17:44.237Z,95.72
2019-05-16T18:19:49.756Z,86.82
2019-05-16T18:21:57.098Z,72.25
2019-05-16T18:24:02.502Z,87.42
2019-05-16T18:26:08.085Z,79.97
2019-05-16T18:28:13.750Z,80.38
2019-05-16T18:30:22.368Z,81.35
2019-05-16T18:32:27.911Z,137.92
2019-05-16T18:34:33.444Z,152.35
2019-05-16T18:36:39.142Z,121.82
2019-05-16T18:38:46.681Z,127.38
2019-05-16T18:40:52.058Z,95.55
2019-05-16T18:42:57.608Z,133.60
2019-05-16T18:45:08.114Z,101.58
2019-05-16T18:47:13.693Z,104.10
2019-05-16T18:49:20.313Z,153.60
2019-05-16T18:51:26.505Z,203.27
2019-05-16T18:53:32.372Z,187.27
2019-05-16T18:55:37.982Z,108.50
2019-05-16T18:57:47.040Z,369.43
2019-05-16T18:59:52.081Z,180.27
2019-05-16T19:01:57.695Z,660.35
2019-05-16T19:04:03.383Z,636.00
2019-05-16T19:06:08.917Z,288.98
2019-05-16T19:08:16.357Z,599.67
2019-05-16T19:10:22.152Z,518.60
2019-05-16T19:12:27.668Z,470.77
2019-05-16T19:14:33.308Z,240.87
2019-05-16T19:16:38.838Z,387.90
2019-05-16T19:18:44.450Z,429.85
2019-05-16T19:20:50.070Z,134.05
2019-05-16T19:22:58.908Z,91.32
2019-05-16T19:25:03.034Z,87.08
2019-05-16T19:27:08.636Z,65.95
2019-05-16T19:29:14.177Z,62.45
2019-05-16T19:31:19.781Z,76.55
2019-05-16T19:33:25.328Z,83.42
2019-05-16T19:35:30.861Z,66.62
2019-05-16T19:37:40.455Z,75.22
2019-05-16T19:39:43.745Z,78.83
2019-05-16T19:41:54.259Z,88.27
2019-05-16T19:44:02.541Z,53.38
2019-05-16T19:46:08.069Z,55.43
2019-05-16T19:48:13.671Z,62.58
2019-05-16T19:50:19.544Z,59.18
2019-05-16T19:52:26.976Z,54.95
2019-05-16T19:54:32.408Z,59.20
2019-05-16T19:56:38.009Z,54.08
2019-05-16T19:58:43.613Z,50.08
2019-05-16T20:00:50.326Z,49.80
2019-05-16T20:02:56.878Z,49.90
2019-05-16T20:05:02.706Z,47.35
2019-05-16T20:07:08.352Z,45.58
2019-05-16T20:09:16.495Z,52.60
2019-05-16T20:11:21.188Z,53.80
2019-05-16T20:13:27.436Z,51.20
2019-05-16T20:15:33.317Z,52.23
2019-05-16T20:17:50.883Z,51.95
2019-05-16T20:19:47.072Z,50.12
2019-05-16T20:21:52.712Z,54.23
2019-05-16T20:23:58.308Z,54.88
2019-05-16T20:26:04.038Z,47.98
2019-05-16T20:28:09.575Z,55.85
2019-05-16T20:30:17.073Z,48.33
2019-05-16T20:32:22.857Z,51.63
2019-05-16T20:34:28.392Z,53.52
2019-05-16T20:36:33.924Z,56.45
2019-05-16T20:38:39.444Z,53.35
2019-05-16T20:40:46.624Z,54.42
2019-05-16T20:42:52.365Z,56.15
2019-05-16T20:44:57.885Z,57.45
2019-05-16T20:47:03.409Z,55.12
2019-05-16T20:49:08.951Z,56.73
2019-05-16T20:51:16.569Z,53.83
2019-05-16T20:53:21.745Z,57.33
2019-05-16T20:55:27.382Z,55.17
2019-05-16T20:57:32.886Z,51.68
2019-05-16T20:59:38.400Z,54.50
2019-05-16T21:01:44.068Z,52.78
2019-05-16T21:03:49.657Z,60.25
2019-05-16T21:05:57.872Z,57.30
2019-05-16T21:08:02.347Z,56.73
2019-05-16T21:10:08.726Z,54.10
2019-05-16T21:12:14.252Z,58.20
2019-05-16T21:14:19.864Z,59.55
2019-05-16T21:16:26.985Z,58.33
2019-05-16T21:18:32.802Z,55.30
2019-05-16T21:20:38.997Z,60.95
2019-05-16T21:22:47.023Z,59.48
2019-05-16T21:24:51.806Z,55.12
2019-05-16T21:26:57.405Z,64.10
2019-05-16T21:29:03.176Z,64.55
2019-05-16T21:31:08.940Z,64.60
2019-05-16T21:33:16.538Z,61.80
2019-05-16T21:35:21.729Z,60.12
2019-05-16T21:37:27.342Z,65.22
2019-05-16T21:39:32.942Z,73.52
2019-05-16T21:41:38.537Z,64.97
2019-05-16T21:43:44.048Z,74.32
2019-05-16T21:45:49.648Z,69.27
2019-05-16T21:47:56.855Z,67.53
2019-05-16T21:50:02.467Z,65.52
2019-05-16T21:52:08.371Z,65.83
2019-05-16T21:54:13.957Z,68.07
2019-05-16T21:56:19.481Z,64.17
2019-05-16T21:58:26.741Z,61.28
2019-05-16T22:00:44.365Z,56.92
2019-05-16T22:02:50.569Z,59.18
2019-05-16T22:04:56.855Z,61.35
2019-05-16T22:07:03.391Z,54.65
2019-05-16T22:09:09.328Z,54.77
2019-05-16T22:11:17.209Z,62.67
2019-05-16T22:13:24.847Z,57.50
2019-05-16T22:15:32.416Z,58.65
2019-05-16T22:17:38.053Z,53.05
2019-05-16T22:19:43.642Z,58.48
2019-05-16T22:21:49.219Z,56.10
2019-05-16T22:23:56.986Z,55.43
2019-05-16T22:26:02.102Z,54.85
2019-05-16T22:28:07.645Z,56.45
2019-05-16T22:30:16.488Z,60.15
2019-05-16T22:32:22.152Z,65.97
2019-05-16T22:34:27.672Z,70.35
2019-05-16T22:36:33.244Z,69.65
2019-05-16T22:38:38.766Z,65.17
2019-05-16T22:40:44.277Z,68.17
2019-05-16T22:42:49.821Z,71.67
2019-05-16T22:44:55.407Z,63.08
2019-05-16T22:47:00.930Z,53.92
2019-05-16T22:49:07.568Z,54.15
2019-05-16T22:51:13.428Z,52.98
2019-05-16T22:53:18.948Z,54.27
2019-05-16T22:55:26.477Z,55.50
2019-05-16T22:57:31.785Z,53.63
2019-05-16T22:59:37.305Z,57.55
2019-05-16T23:01:42.849Z,53.58
2019-05-16T23:03:48.375Z,49.55
2019-05-16T23:05:56.398Z,52.90
2019-05-16T23:08:05.883Z,51.33
2019-05-16T23:10:08.512Z,51.25
2019-05-16T23:12:14.181Z,54.75
2019-05-16T23:14:19.716Z,56.63
2019-05-16T23:16:26.697Z,72.20
2019-05-16T23:18:32.294Z,86.57
2019-05-16T23:20:38.895Z,87.42
2019-05-16T23:22:46.811Z,90.95
2019-05-16T23:24:51.549Z,92.45
2019-05-16T23:26:57.083Z,78.83
2019-05-16T23:29:02.604Z,73.28
2019-05-16T23:31:08.204Z,72.15
2019-05-16T23:33:13.748Z,70.28
2019-05-16T23:35:19.278Z,61.53
2019-05-16T23:37:27.280Z,60.60
2019-05-16T23:39:32.019Z,56.88
2019-05-16T23:41:37.545Z,55.28
2019-05-16T23:43:43.044Z,56.90
2019-05-16T23:45:48.598Z,57.75
2019-05-16T23:47:56.275Z,60.25
2019-05-16T23:50:01.460Z,64.87
2019-05-16T23:52:07.582Z,67.22
2019-05-16T23:54:13.364Z,67.25
2019-05-16T23:56:19.969Z,66.30
2019-05-16T23:58:25.656Z,67.17
